Time;durP1;ratioP1;P1;durP2;ratioP2;P2;SDS_P1;SDS_P2;PMS_P1;PMS_P2;Temp;Humidity;BMP_temperature;BMP_pressure;BME280_temperature;BME280_humidity;BME280_pressure;Samples;Min_cycle;Max_cycle;Signal;HPM_P1;HPM_P2
2022/08/09 00:01:47;;;;;;;7.35;2.08;;;;;;;19.08;62.90;100010.84;5032250;28;20045;-72
2022/08/09 00:04:21;;;;;;;4.20;2.00;;;;;;;19.09;62.68;100001.19;5032238;28;20077;-72
2022/08/09 00:07:01;;;;;;;;;;;;;;;19.00;62.71;99992.16;5032774;28;20049;-72
2022/08/09 00:09:28;;;;;;;53.55;19.90;;;;;;;19.06;62.86;99989.84;5032267;28;20384;-72
2022/08/09 00:11:57;;;;;;;7.55;3.67;;;;;;;19.06;62.95;99976.56;5021291;28;20112;-71
2022/08/09 00:14:30;;;;;;;4.18;2.38;;;;;;;19.08;63.03;99962.06;5013091;28;20088;-72
2022/08/09 00:17:04;;;;;;;4.43;2.53;;;;;;;19.08;63.03;99953.63;5012443;28;20077;-72
2022/08/09 00:19:31;;;;;;;4.32;2.30;;;;;;;18.99;63.56;99939.78;5011934;28;20045;-72
2022/08/09 00:22:01;;;;;;;4.97;2.47;;;;;;;18.84;63.89;99928.66;5012556;28;20457;-72
2022/08/09 00:24:30;;;;;;;3.38;2.20;;;;;;;18.75;64.15;99928.13;5012430;28;20053;-72
2022/08/09 00:26:58;;;;;;;3.38;2.20;;;;;;;18.70;64.40;99929.25;5012360;28;20052;-71
2022/08/09 00:29:26;;;;;;;7.03;2.60;;;;;;;18.71;64.29;99924.44;5012197;28;20541;-72
2022/08/09 00:32:14;;;;;;;4.03;2.45;;;;;;;18.72;64.23;99926.88;5016601;28;20107;-71
2022/08/09 00:35:02;;;;;;;4.32;2.20;;;;;;;18.63;64.49;99926.31;5032027;28;20069;-72
2022/08/09 00:37:29;;;;;;;5.93;2.05;;;;;;;18.59;64.63;99933.09;5031660;28;20104;-74
2022/08/09 00:39:58;;;;;;;3.43;1.60;;;;;;;18.51;64.63;99923.69;5031885;28;20128;-72
2022/08/09 00:42:43;;;;;;;4.18;1.80;;;;;;;18.48;64.78;99924.44;5031481;28;20053;-72
2022/08/09 00:45:30;;;;;;;3.38;1.83;;;;;;;18.42;64.85;99917.50;5035003;28;20139;-72
2022/08/09 00:48:02;;;;;;;3.78;1.85;;;;;;;18.45;64.81;99908.28;5035521;28;20088;-72
2022/08/09 00:50:31;;;;;;;4.00;2.30;;;;;;;18.48;64.77;99901.91;5034444;28;20049;-73
2022/08/09 00:52:58;;;;;;;3.58;1.98;;;;;;;18.48;64.74;99907.53;5035212;28;20080;-73
2022/08/09 00:55:34;;;;;;;3.33;1.70;;;;;;;18.41;64.75;99906.59;5035684;28;20136;-73
2022/08/09 00:58:22;;;;;;;3.30;1.70;;;;;;;18.43;64.77;99905.03;5034978;28;20508;-73
2022/08/09 01:00:57;;;;;;;5.00;2.20;;;;;;;18.40;64.69;99908.59;5034222;28;20068;-73
2022/08/09 01:03:39;;;;;;;2.80;1.88;;;;;;;18.39;64.59;99918.25;5035429;28;20049;-72
2022/08/09 01:06:38;;;;;;;4.22;1.92;;;;;;;18.36;64.77;99938.69;5035103;28;20144;-73
2022/08/09 01:09:23;;;;;;;4.90;2.40;;;;;;;18.38;65.03;99935.53;5034735;28;20049;-72
2022/08/09 01:12:10;;;;;;;3.60;1.80;;;;;;;18.43;64.45;99921.94;5023312;28;20077;-73
2022/08/09 01:14:51;;;;;;;3.00;1.80;;;;;;;18.36;64.46;99920.97;5014888;28;20053;-73
2022/08/09 01:17:28;;;;;;;2.92;1.70;;;;;;;18.31;64.29;99930.53;5015195;28;20054;-73
2022/08/09 01:20:05;;;;;;;3.80;2.08;;;;;;;18.33;64.46;99933.81;5015308;28;20046;-73
2022/08/09 01:22:32;;;;;;;3.20;1.90;;;;;;;18.33;64.46;99927.34;5014743;28;20054;-73
2022/08/09 01:25:28;;;;;;;4.55;1.67;;;;;;;18.33;64.46;99931.00;5015280;28;20054;-73
2022/08/09 01:28:00;;;;;;;5.93;2.08;;;;;;;18.41;64.16;99946.03;5014936;28;20120;-72
2022/08/09 01:30:30;;;;;;;7.63;1.63;;;;;;;18.41;63.93;99949.66;5014944;28;20104;-73
2022/08/09 01:33:20;;;;;;;3.58;1.90;;;;;;;18.37;63.69;99943.16;5031926;28;20057;-73
2022/08/09 01:35:54;;;;;;;2.90;1.70;;;;;;;18.38;63.56;99944.78;5034569;28;20136;-73
2022/08/09 01:38:25;;;;;;;3.88;2.28;;;;;;;18.39;63.47;99949.25;5034041;28;20049;-73
2022/08/09 01:41:05;;;;;;;3.65;1.90;;;;;;;18.43;63.38;99941.66;5034584;28;20053;-71
2022/08/09 01:43:35;;;;;;;3.75;1.83;;;;;;;18.50;63.39;99947.41;5034454;28;20572;-73
2022/08/09 01:46:25;;;;;;;3.03;1.77;;;;;;;18.53;63.22;99949.47;5034087;28;20053;-72
2022/08/09 01:48:57;;;;;;;5.18;1.98;;;;;;;18.55;63.15;99949.09;5034312;28;20049;-73
2022/08/09 01:51:28;;;;;;;3.13;1.90;;;;;;;18.57;62.99;99941.09;5033368;28;20051;-72
2022/08/09 01:54:01;;;;;;;4.00;1.88;;;;;;;18.57;62.93;99947.56;5033347;28;20045;-72
2022/08/09 01:56:32;;;;;;;3.83;1.83;;;;;;;18.61;62.70;99954.06;5034214;28;20091;-73
2022/08/09 01:59:02;;;;;;;8.75;1.95;;;;;;;18.61;62.63;99954.06;5033021;28;20049;-72
2022/08/09 02:01:32;;;;;;;3.58;1.75;;;;;;;18.61;62.66;99958.88;5033723;28;20045;-72
2022/08/09 02:04:20;;;;;;;4.53;2.17;;;;;;;18.61;62.58;99962.50;5033935;28;20054;-72
2022/08/09 02:07:08;;;;;;;5.30;1.85;;;;;;;18.72;62.29;99963.50;5034293;28;20058;-73
2022/08/09 02:09:59;;;;;;;5.13;2.13;;;;;;;18.79;61.73;99960.81;5034103;28;20046;-73
2022/08/09 02:12:32;;;;;;;2.92;1.60;;;;;;;18.84;61.88;99959.66;5017825;28;20077;-72
2022/08/09 02:15:01;;;;;;;2.60;1.70;;;;;;;18.84;61.77;99954.84;5012598;28;20096;-73
2022/08/09 02:17:33;;;;;;;4.35;2.00;;;;;;;18.84;61.69;99957.69;5014248;28;20082;-73
2022/08/09 02:20:21;;;;;;;7.72;2.50;;;;;;;18.86;61.72;99962.94;5012541;28;20143;-72
2022/08/09 02:23:01;;;;;;;3.72;1.85;;;;;;;18.88;61.67;99963.34;5013917;28;20382;-72
2022/08/09 02:25:33;;;;;;;3.88;1.67;;;;;;;18.88;61.67;99967.00;5013866;28;20053;-72
2022/08/09 02:28:36;;;;;;;2.88;1.90;;;;;;;18.84;61.74;99960.50;5013854;28;20473;-72
2022/08/09 02:31:26;;;;;;;4.25;1.67;;;;;;;18.82;61.75;99968.50;5013344;28;20509;-72
2022/08/09 02:34:03;;;;;;;6.05;1.77;;;;;;;18.78;61.97;99978.09;5013602;28;20053;-72
2022/08/09 02:36:43;;;;;;;6.70;2.10;;;;;;;18.73;62.16;99978.41;5013777;28;20153;-73
2022/08/09 02:39:15;;;;;;;3.03;1.80;;;;;;;18.72;62.16;99979.59;5013638;28;20049;-73
2022/08/09 02:42:04;;;;;;;3.40;1.60;;;;;;;18.65;62.46;99979.50;5013691;28;20520;-73
2022/08/09 02:44:39;;;;;;;7.13;1.88;;;;;;;18.61;62.42;99978.59;5013351;28;20060;-73
2022/08/09 02:47:10;;;;;;;3.95;2.03;;;;;;;18.61;62.62;99987.88;5013286;28;20053;-73
2022/08/09 02:50:08;;;;;;;5.18;2.10;;;;;;;18.68;62.59;99992.81;5013205;28;20165;-65
2022/08/09 02:52:50;;;;;;;6.40;2.17;;;;;;;18.73;62.47;99992.50;5013367;28;20152;-65
2022/08/09 02:55:24;;;;;;;2.42;1.70;;;;;;;18.70;62.14;99988.44;5013594;28;20042;-65
2022/08/09 02:58:14;;;;;;;5.70;1.77;;;;;;;18.68;61.79;100002.06;5013058;28;20057;-66
2022/08/09 03:01:02;;;;;;;2.33;1.48;;;;;;;18.71;61.39;100008.97;5013370;28;20045;-65
2022/08/09 03:03:32;;;;;;;3.90;1.65;;;;;;;18.76;60.98;100003.84;5012906;28;20049;-66
2022/08/09 03:06:21;;;;;;;2.85;1.67;;;;;;;18.75;61.02;100002.22;5012945;28;20053;-66
2022/08/09 03:08:52;;;;;;;5.97;1.50;;;;;;;18.81;60.60;99995.06;5012507;28;20119;-65
2022/08/09 03:11:22;;;;;;;3.70;1.60;;;;;;;18.84;60.39;100005.59;5011374;28;20046;-66
2022/08/09 03:14:10;;;;;;;3.05;1.40;;;;;;;18.77;60.40;99994.19;5013282;28;20398;-66
2022/08/09 03:16:39;;;;;;;2.53;1.40;;;;;;;18.81;60.29;99991.44;5012880;28;20112;-66
2022/08/09 03:19:16;;;;;;;3.60;1.75;;;;;;;18.91;60.10;100000.06;5012934;28;20390;-73
2022/08/09 03:22:04;;;;;;;4.60;1.85;;;;;;;18.92;60.08;99993.22;5013304;28;20061;-72
2022/08/09 03:24:38;;;;;;;2.83;1.50;;;;;;;18.96;60.02;99996.13;5012985;28;20100;-64
2022/08/09 03:27:19;;;;;;;2.50;1.55;;;;;;;19.01;59.81;99990.97;5012896;28;20064;-68
2022/08/09 03:29:51;;;;;;;2.83;1.40;;;;;;;19.03;59.80;99990.59;5012794;28;20058;-68
2022/08/09 03:32:32;;;;;;;2.83;1.70;;;;;;;19.08;59.79;99991.09;5013132;28;20042;-65
2022/08/09 03:35:04;;;;;;;6.20;1.90;;;;;;;19.14;59.79;99986.78;5012786;28;20049;-65
2022/08/09 03:37:51;;;;;;;4.63;2.08;;;;;;;19.14;59.68;99989.59;5012441;28;20062;-65
2022/08/09 03:40:24;;;;;;;4.97;1.85;;;;;;;19.21;59.77;99997.31;5016430;28;20095;-66
2022/08/09 03:42:57;;;;;;;5.28;2.00;;;;;;;19.30;59.53;99993.09;5032526;28;20420;-66
2022/08/09 03:45:24;;;;;;;5.75;1.83;;;;;;;19.39;59.20;99987.19;5032766;28;20056;-66
2022/08/09 03:48:11;;;;;;;4.32;1.58;;;;;;;19.39;59.47;99993.63;5032108;28;20378;-66
2022/08/09 03:50:48;;;;;;;2.72;1.77;;;;;;;19.38;59.60;99996.81;5018363;28;20045;-65
2022/08/09 03:53:19;;;;;;;2.75;1.70;;;;;;;19.34;59.54;99991.16;5012754;28;20188;-65
2022/08/09 03:55:50;;;;;;;3.75;2.00;;;;;;;19.38;59.62;99999.66;5011853;28;20058;-66
2022/08/09 03:58:17;;;;;;;4.10;1.85;;;;;;;19.52;59.29;100002.69;5012272;28;20061;-66
2022/08/09 04:00:48;;;;;;;4.78;1.52;;;;;;;19.58;58.71;99999.16;5012616;28;20129;-65
2022/08/09 04:03:18;;;;;;;2.53;1.63;;;;;;;19.67;58.66;100001.69;5012513;28;20421;-68
2022/08/09 04:06:05;;;;;;;4.47;2.00;;;;;;;19.69;58.59;100002.94;5012552;28;20060;-65
2022/08/09 04:08:32;;;;;;;5.20;1.88;;;;;;;19.70;58.64;100003.75;5012526;28;20089;-65
2022/08/09 04:11:00;;;;;;;4.53;1.80;;;;;;;19.66;58.76;100000.88;5012291;28;20038;-65
2022/08/09 04:13:30;;;;;;;3.67;1.90;;;;;;;19.70;58.72;100009.41;5012396;28;20061;-66
2022/08/09 04:16:17;;;;;;;9.38;1.85;;;;;;;19.74;58.73;100002.59;5012702;28;20092;-65
2022/08/09 04:18:47;;;;;;;2.50;1.65;;;;;;;19.67;58.86;100002.53;5012377;28;20056;-64
2022/08/09 04:21:17;;;;;;;12.32;2.22;;;;;;;19.58;59.15;99995.50;5016237;28;20053;-65
2022/08/09 04:23:44;;;;;;;4.50;1.90;;;;;;;19.48;59.68;100002.63;5016085;28;20050;-64
2022/08/09 04:26:20;;;;;;;3.67;2.10;;;;;;;19.48;59.86;100002.63;5015845;28;20049;-67
2022/08/09 04:28:49;;;;;;;4.33;1.70;;;;;;;19.42;59.90;99998.50;5015726;28;20050;-68
2022/08/09 04:31:17;;;;;;;5.90;1.77;;;;;;;19.32;60.37;100009.63;5015774;28;20505;-68
2022/08/09 04:33:47;;;;;;;6.15;2.22;;;;;;;19.23;60.42;99992.94;5015696;28;20046;-68
2022/08/09 04:36:27;;;;;;;4.45;2.05;;;;;;;19.17;60.72;100002.94;5015669;28;20060;-68
2022/08/09 04:39:00;;;;;;;3.03;1.70;;;;;;;19.19;60.49;99994.09;5015267;28;20042;-68
2022/08/09 04:41:28;;;;;;;3.83;1.60;;;;;;;19.15;60.62;99996.84;5015469;28;20042;-67
2022/08/09 04:44:03;;;;;;;3.83;2.10;;;;;;;19.17;60.65;99997.28;5015698;28;20054;-68
2022/08/09 04:46:39;;;;;;;3.78;1.92;;;;;;;19.24;60.41;99994.56;5016059;28;20056;-68
2022/08/09 04:49:31;;;;;;;3.70;1.75;;;;;;;19.19;60.56;99994.09;5015773;28;20141;-66
2022/08/09 04:52:20;;;;;;;3.50;1.90;;;;;;;19.12;60.79;99994.78;5015411;28;20092;-66
2022/08/09 04:54:59;;;;;;;4.63;1.90;;;;;;;19.02;60.77;99998.25;5015641;28;20060;-67
2022/08/09 04:57:27;;;;;;;3.67;1.85;;;;;;;19.02;60.86;99984.16;5015184;28;20092;-66
2022/08/09 05:00:15;;;;;;;3.35;1.52;;;;;;;19.00;61.03;99974.44;5017137;28;20405;-67
2022/08/09 05:02:43;;;;;;;8.32;2.25;;;;;;;19.11;60.78;99970.59;5033684;28;20061;-65
2022/08/09 05:05:17;;;;;;;4.85;1.80;;;;;;;19.22;60.54;99971.56;5035259;28;20081;-67
2022/08/09 05:08:04;;;;;;;4.75;2.00;;;;;;;19.22;60.45;99977.19;5034578;28;20060;-66
2022/08/09 05:10:32;;;;;;;2.58;1.90;;;;;;;19.15;60.53;99977.09;5035386;28;20056;-66
2022/08/09 05:13:02;;;;;;;3.75;1.88;;;;;;;19.14;60.53;99972.66;5015010;28;20088;-66
2022/08/09 05:15:29;;;;;;;3.97;2.00;;;;;;;19.21;60.24;99967.13;5014983;28;20050;-66
2022/08/09 05:18:08;;;;;;;4.30;1.65;;;;;;;19.23;60.20;99972.38;5015300;28;20489;-66
2022/08/09 05:20:56;;;;;;;3.38;1.65;;;;;;;19.20;59.93;99968.31;5013591;28;20393;-66
2022/08/09 05:23:23;;;;;;;3.28;1.50;;;;;;;19.26;59.80;99972.44;5014877;28;20056;-66
2022/08/09 05:26:11;;;;;;;5.55;2.05;;;;;;;19.44;59.50;99972.72;5014863;28;20497;-66
2022/08/09 05:28:52;;;;;;;5.70;1.70;;;;;;;19.63;58.59;99964.94;5014794;28;20501;-68
2022/08/09 05:31:18;;;;;;;4.30;1.65;;;;;;;19.71;58.45;99980.78;5014591;28;20524;-65
2022/08/09 05:34:05;;;;;;;5.43;1.60;;;;;;;19.78;58.14;99978.03;5014754;28;20092;-66
2022/08/09 05:36:44;;;;;;;4.43;2.38;;;;;;;19.96;57.46;99981.13;5014217;28;20062;-67
2022/08/09 05:39:18;;;;;;;2.42;1.60;;;;;;;20.17;57.13;99967.28;5014391;28;20053;-66
2022/08/09 05:41:56;;;;;;;3.78;1.73;;;;;;;20.13;56.81;99965.59;5014988;28;20053;-67
2022/08/09 05:44:30;;;;;;;4.97;1.75;;;;;;;20.28;56.47;99961.75;5014479;28;20081;-66
2022/08/09 05:46:59;;;;;;;5.57;1.65;;;;;;;20.61;56.00;99964.50;5014500;28;20509;-66
2022/08/09 05:49:26;;;;;;;3.67;1.70;;;;;;;20.80;55.17;99975.56;5014165;28;20477;-66
2022/08/09 05:52:13;;;;;;;2.97;1.48;;;;;;;20.95;54.68;99974.53;5014831;28;20053;-66
2022/08/09 05:54:41;;;;;;;9.68;1.70;;;;;;;21.21;53.85;99971.50;5014338;28;20528;-67
2022/08/09 05:57:10;;;;;;;;;;;;;;;21.27;53.92;99965.09;4997236;28;20053;-66
2022/08/09 05:59:40;;;;;;;3.50;1.60;;;;;;;21.68;52.67;99960.88;5014211;28;19925;-66
2022/08/09 06:02:08;;;;;;;4.75;1.90;;;;;;;22.24;51.32;99968.84;5013923;28;20363;-66
2022/08/09 06:04:35;;;;;;;5.80;1.73;;;;;;;22.44;50.75;99972.13;5014183;28;20428;-66
2022/08/09 06:07:10;;;;;;;6.90;2.05;;;;;;;22.10;51.14;99968.78;5013968;28;20398;-66
2022/08/09 06:09:47;;;;;;;5.40;1.95;;;;;;;21.61;51.72;99962.84;5014281;28;20050;-66
2022/08/09 06:12:32;;;;;;;9.45;2.10;;;;;;;21.06;53.12;99964.13;5013853;28;20053;-66
2022/08/09 06:14:59;;;;;;;5.60;1.88;;;;;;;20.82;53.76;99970.34;5013662;28;20513;-66
2022/08/09 06:17:29;;;;;;;4.97;1.80;;;;;;;20.50;54.31;99966.41;5013970;28;20081;-66
2022/08/09 06:20:06;;;;;;;5.07;1.83;;;;;;;20.17;54.93;99966.44;5013741;28;20572;-66
2022/08/09 06:22:33;;;;;;;8.35;3.42;;;;;;;20.09;55.22;99959.06;5014098;28;20136;-66
2022/08/09 06:25:01;;;;;;;5.13;2.03;;;;;;;20.01;55.12;99963.81;5013737;28;20068;-66
2022/08/09 06:27:36;;;;;;;3.13;1.80;;;;;;;20.00;55.28;99962.19;5013857;28;20145;-66
2022/08/09 06:30:09;;;;;;;;;;;;;;;19.91;55.46;99973.78;5014164;28;20054;-66
2022/08/09 06:32:41;;;;;;;6.97;1.98;;;;;;;19.99;55.07;99961.38;5013874;28;20380;-66
2022/08/09 06:35:28;;;;;;;4.53;1.67;;;;;;;19.99;55.24;99972.66;5013743;28;20503;-66
2022/08/09 06:38:15;;;;;;;9.55;1.63;;;;;;;19.99;55.44;99981.13;5013220;28;20070;-66
2022/08/09 06:40:42;;;;;;;3.17;1.48;;;;;;;19.94;55.66;99975.84;5022736;28;20509;-66
2022/08/09 06:43:09;;;;;;;3.90;1.77;;;;;;;19.81;55.84;99974.47;5032572;28;20068;-66
2022/08/09 06:45:37;;;;;;;10.70;1.80;;;;;;;19.69;56.33;99973.91;5033326;28;20046;-67
2022/08/09 06:48:24;;;;;;;5.63;2.00;;;;;;;19.57;56.60;99974.94;5033154;28;20060;-66
2022/08/09 06:50:58;;;;;;;5.35;1.85;;;;;;;19.46;57.00;99959.88;5018198;28;20054;-66
2022/08/09 06:53:25;;;;;;;8.35;2.50;;;;;;;19.42;57.08;99956.19;5013532;28;20066;-66
2022/08/09 06:55:59;;;;;;;8.15;2.25;;;;;;;19.44;56.86;99967.09;5013191;28;20061;-66
2022/08/09 06:58:26;;;;;;;8.00;2.50;;;;;;;19.49;56.84;99963.94;5013372;28;20046;-65
2022/08/09 07:01:13;;;;;;;3.30;1.70;;;;;;;19.49;57.10;99963.94;5013071;28;20417;-66
2022/08/09 07:03:42;;;;;;;12.77;1.83;;;;;;;19.48;56.99;99965.94;5013122;28;20414;-65
2022/08/09 07:06:20;;;;;;;9.10;2.15;;;;;;;19.46;57.23;99974.00;5013228;28;20378;-63
2022/08/09 07:08:51;;;;;;;8.65;2.05;;;;;;;19.38;57.60;99977.91;5013114;28;20073;-65
2022/08/09 07:11:17;;;;;;;7.28;1.55;;;;;;;19.37;58.07;99984.75;5016249;28;20409;-64
2022/08/09 07:13:51;;;;;;;12.40;2.15;;;;;;;19.44;57.70;99984.84;5023054;28;20045;-64
2022/08/09 07:16:31;;;;;;;9.88;1.77;;;;;;;19.50;57.50;99986.13;5032377;28;20053;-65
2022/08/09 07:19:13;;;;;;;7.22;1.83;;;;;;;19.62;57.37;99996.38;5021958;28;20050;-65
2022/08/09 07:21:44;;;;;;;5.38;1.67;;;;;;;19.60;57.55;99984.66;5023658;28;20140;-64
2022/08/09 07:24:26;;;;;;;4.60;1.77;;;;;;;19.64;57.68;99989.16;5028795;28;20046;-65
2022/08/09 07:27:08;;;;;;;4.72;1.67;;;;;;;19.67;57.78;99982.75;5020070;28;20428;-64
2022/08/09 07:29:55;;;;;;;3.03;1.60;;;;;;;19.69;57.64;99985.19;5031183;28;20080;-66
2022/08/09 07:32:25;;;;;;;8.13;1.70;;;;;;;19.73;57.19;99986.88;5015537;28;20045;-64
2022/08/09 07:34:58;;;;;;;4.22;1.58;;;;;;;19.88;56.42;99990.69;5012634;28;20088;-64
2022/08/09 07:37:25;;;;;;;6.22;1.77;;;;;;;20.06;55.82;99990.91;5019347;28;20064;-64
2022/08/09 07:39:52;;;;;;;5.50;1.70;;;;;;;20.35;54.83;99978.75;5031577;28;20077;-65
2022/08/09 07:42:22;;;;;;;2.93;1.47;;;;;;;20.71;53.73;99975.91;5019491;28;20132;-65
2022/08/09 07:44:58;;;;;;;3.22;1.90;;;;;;;20.78;53.77;99972.34;5018452;28;20269;-64
2022/08/09 07:47:32;;;;;;;5.60;1.60;;;;;;;20.55;54.31;99966.06;5024440;28;20108;-64
2022/08/09 07:50:24;;;;;;;2.33;1.45;;;;;;;20.49;54.44;99959.13;5012564;28;20054;-64
2022/08/09 07:53:03;;;;;;;7.05;2.03;;;;;;;20.56;54.02;99957.19;5026092;28;20042;-64
2022/08/09 07:55:31;;;;;;;7.32;2.08;;;;;;;21.27;52.68;99964.28;5016130;28;20092;-64
2022/08/09 07:58:18;;;;;;;4.72;1.80;;;;;;;22.61;49.68;99994.06;5019790;28;20156;-66
2022/08/09 08:00:54;;;;;;;3.60;1.75;;;;;;;22.97;49.02;99996.53;5020593;28;20132;-67
2022/08/09 08:03:32;;;;;;;2.90;2.03;;;;;;;24.38;45.54;99977.19;5026126;28;20073;-67
2022/08/09 08:06:03;;;;;;;7.95;1.77;;;;;;;24.76;44.83;99979.00;5035306;28;20437;-68
2022/08/09 08:08:31;;;;;;;5.72;1.42;;;;;;;24.82;44.53;99976.50;5024296;28;20060;-68
2022/08/09 08:11:18;;;;;;;2.63;1.58;;;;;;;23.99;46.05;99987.94;5021610;28;20472;-67
2022/08/09 08:14:05;;;;;;;3.20;1.30;;;;;;;23.81;46.41;99989.16;5029232;28;20090;-68
2022/08/09 08:16:32;;;;;;;5.80;2.00;;;;;;;25.07;43.44;99988.50;5030441;28;20049;-68
2022/08/09 08:19:00;;;;;;;2.47;1.58;;;;;;;25.59;42.83;99978.69;5030376;28;20083;-68
2022/08/09 08:21:30;;;;;;;2.92;1.63;;;;;;;25.27;42.77;99986.72;5029406;28;20128;-67
2022/08/09 08:23:57;;;;;;;3.95;1.80;;;;;;;25.72;41.94;99991.16;5027261;28;20085;-68
2022/08/09 08:26:37;;;;;;;;;;;;;;;26.10;41.23;99995.66;5030839;28;20057;-68
2022/08/09 08:29:23;;;;;;;3.25;1.73;;;;;;;27.23;39.44;99994.03;5034564;28;20296;-68
2022/08/09 08:31:54;;;;;;;2.90;1.52;;;;;;;26.66;39.60;100002.66;5029678;28;20045;-68
2022/08/09 08:34:31;;;;;;;11.93;1.88;;;;;;;26.61;39.73;99998.22;5028651;28;20052;-68
2022/08/09 08:37:00;;;;;;;10.10;1.88;;;;;;;26.43;39.89;99994.81;5029683;28;20137;-67
2022/08/09 08:39:27;;;;;;;6.35;1.70;;;;;;;26.99;38.76;99995.25;5030302;28;20760;-68
2022/08/09 08:41:55;;;;;;;4.22;1.70;;;;;;;26.91;39.13;99994.53;5030163;28;20049;-66
2022/08/09 08:44:27;;;;;;;6.80;2.38;;;;;;;26.35;39.89;99998.97;5030666;28;20045;-67
2022/08/09 08:46:59;;;;;;;3.97;1.85;;;;;;;25.81;40.72;99994.31;5027311;28;20057;-67
2022/08/09 08:49:39;;;;;;;3.45;1.98;;;;;;;25.00;42.17;99995.09;5020493;28;20124;-68
2022/08/09 08:52:20;;;;;;;3.25;1.77;;;;;;;24.86;42.22;99995.19;5042267;28;20049;-68
2022/08/09 08:55:08;;;;;;;4.85;1.77;;;;;;;24.68;42.95;99990.84;5025593;28;20410;-67
2022/08/09 08:57:36;;;;;;;4.18;1.63;;;;;;;24.48;43.50;100001.91;5029314;28;20127;-67
2022/08/09 09:00:07;;;;;;;2.50;1.40;;;;;;;24.36;43.03;100002.38;5027501;28;20459;-67
2022/08/09 09:02:48;;;;;;;2.40;1.45;;;;;;;24.74;42.65;99997.69;5024764;28;20050;-68
2022/08/09 09:05:24;;;;;;;11.88;3.05;;;;;;;27.11;38.32;100000.34;5026115;28;20103;-68
2022/08/09 09:08:13;;;;;;;5.60;1.70;;;;;;;27.99;36.57;99997.56;5018918;28;20053;-67
2022/08/09 09:11:02;;;;;;;3.50;1.50;;;;;;;28.43;35.77;99996.22;5031044;28;20524;-68
2022/08/09 09:13:39;;;;;;;3.45;1.58;;;;;;;29.37;33.96;99993.16;5015119;28;20100;-68
2022/08/09 09:16:21;;;;;;;4.10;1.75;;;;;;;29.90;33.46;99988.91;5017656;28;20060;-66
2022/08/09 09:19:02;;;;;;;2.75;1.35;;;;;;;30.76;31.76;99985.97;5015584;28;20100;-67
2022/08/09 09:22:08;;;;;;;2.30;1.33;;;;;;;32.26;29.53;99991.41;5017740;28;20077;-67
2022/08/09 09:24:48;;;;;;;6.55;1.38;;;;;;;33.14;28.43;99985.88;5023774;28;20509;-67
2022/08/09 09:27:19;;;;;;;2.70;1.55;;;;;;;33.32;27.64;99980.16;5014916;28;20081;-68
2022/08/09 09:30:11;;;;;;;5.40;1.42;;;;;;;35.41;25.55;99972.88;5015313;28;20046;-67
2022/08/09 09:33:09;;;;;;;2.22;1.45;;;;;;;39.00;20.39;99967.84;5019033;28;20049;-67
2022/08/09 09:35:55;;;;;;;6.85;1.70;;;;;;;38.47;20.85;99967.56;5014558;28;20045;-69
2022/08/09 09:38:51;;;;;;;9.25;5.88;;;;;;;36.28;23.52;99984.81;5014023;28;20455;-67
2022/08/09 09:41:27;;;;;;;2.95;1.70;;;;;;;34.81;24.88;99975.06;5036951;28;20508;-68
2022/08/09 09:44:06;;;;;;;10.15;2.47;;;;;;;32.45;27.94;99973.03;5020319;28;20054;-68
2022/08/09 09:46:42;;;;;;;5.75;1.63;;;;;;;30.14;30.67;99973.84;5029276;28;20049;-68
2022/08/09 09:49:21;;;;;;;6.03;1.38;;;;;;;28.76;32.65;99966.44;5017733;28;20061;-68
2022/08/09 09:52:09;;;;;;;7.75;1.60;;;;;;;27.82;34.78;99966.41;5013074;28;20038;-67
2022/08/09 09:55:01;;;;;;;4.18;1.73;;;;;;;27.05;35.87;99959.25;5014725;28;20172;-68
2022/08/09 09:57:56;;;;;;;6.15;1.38;;;;;;;26.53;36.57;99968.16;5013358;28;20071;-67
2022/08/09 10:00:30;;;;;;;6.10;1.60;;;;;;;26.13;37.65;99966.28;5016934;28;20128;-67
2022/08/09 10:02:59;;;;;;;;;;;;;;;26.01;37.57;99974.56;5022077;28;20130;-71
2022/08/09 10:05:56;;;;;;;7.05;1.50;;;;;;;26.14;37.62;99962.19;5015662;28;20384;-73
2022/08/09 10:08:30;;;;;;;5.10;1.52;;;;;;;26.05;37.74;99958.25;5021834;28;20136;-72
2022/08/09 10:10:57;;;;;;;4.05;1.80;;;;;;;26.00;38.03;99956.69;5025880;28;20052;-70
2022/08/09 10:13:36;;;;;;;4.20;1.30;;;;;;;25.73;38.44;99952.91;5017739;28;20073;-71
2022/08/09 10:16:11;;;;;;;6.22;1.30;;;;;;;25.54;38.59;99950.66;5017205;28;20056;-71
2022/08/09 10:19:04;;;;;;;8.10;1.40;;;;;;;25.31;39.22;99959.00;5026348;28;20144;-72
2022/08/09 10:21:44;;;;;;;6.03;1.50;;;;;;;25.12;39.88;99962.44;5025371;28;20091;-73
2022/08/09 10:24:17;;;;;;;3.92;1.23;;;;;;;25.16;40.21;99957.50;5021403;28;20094;-72
2022/08/09 10:27:09;;;;;;;4.40;1.40;;;;;;;25.39;40.11;99960.59;5033389;28;20108;-71
2022/08/09 10:29:48;;;;;;;5.32;1.65;;;;;;;25.49;39.80;99953.97;5031706;28;20046;-72
2022/08/09 10:32:35;;;;;;;2.55;1.30;;;;;;;25.44;40.05;99950.78;5017165;28;20428;-72
2022/08/09 10:35:09;;;;;;;4.72;1.35;;;;;;;25.32;40.52;99963.50;5027226;28;20103;-72
2022/08/09 10:37:39;;;;;;;2.63;1.60;;;;;;;25.23;40.19;99963.16;5024709;28;20531;-72
2022/08/09 10:40:08;;;;;;;2.80;1.45;;;;;;;25.21;40.27;99965.59;5025936;28;20053;-72
2022/08/09 10:42:58;;;;;;;5.55;1.58;;;;;;;25.11;41.02;99966.53;5013529;28;20041;-71
2022/08/09 10:45:30;;;;;;;3.65;1.55;;;;;;;24.82;41.45;99976.50;5025636;28;20053;-71
2022/08/09 10:48:34;;;;;;;4.32;1.50;;;;;;;24.61;42.42;99970.94;5029273;28;20081;-69
2022/08/09 10:51:13;;;;;;;2.35;1.25;;;;;;;24.42;42.92;99975.13;5032499;28;20049;-69
2022/08/09 10:53:59;;;;;;;6.38;1.45;;;;;;;24.29;43.02;99984.53;5033037;28;20509;-70
2022/08/09 10:56:33;;;;;;;2.95;1.35;;;;;;;24.19;43.02;99989.03;5032840;28;20050;-70
2022/08/09 10:59:21;;;;;;;3.63;1.40;;;;;;;24.46;42.76;99977.94;5033404;28;20508;-69
2022/08/09 11:01:49;;;;;;;4.07;1.80;;;;;;;24.74;41.97;99981.44;5032589;28;20049;-65
2022/08/09 11:04:36;;;;;;;9.20;1.55;;;;;;;24.95;41.91;99980.47;5032812;28;20398;-65
2022/08/09 11:07:25;;;;;;;4.68;1.67;;;;;;;25.01;41.41;99978.78;5032796;28;20466;-66
2022/08/09 11:09:52;;;;;;;4.25;1.70;;;;;;;24.81;41.79;99980.59;5033036;28;20103;-64
2022/08/09 11:12:27;;;;;;;3.70;1.50;;;;;;;24.66;42.39;99979.06;5022844;28;20046;-64
2022/08/09 11:15:00;;;;;;;4.43;1.48;;;;;;;24.44;42.67;99984.06;5028919;28;20111;-65
2022/08/09 11:17:29;;;;;;;3.13;1.40;;;;;;;24.20;43.28;99979.31;5012725;28;20124;-64
2022/08/09 11:20:08;;;;;;;2.88;1.60;;;;;;;24.16;43.29;99972.81;5012936;28;20042;-65
2022/08/09 11:22:50;;;;;;;2.10;1.38;;;;;;;24.07;43.15;99980.19;5014325;28;20217;-65
2022/08/09 11:25:30;;;;;;;6.40;1.60;;;;;;;23.92;43.16;99976.53;5012925;28;20132;-64
2022/08/09 11:28:33;;;;;;;2.55;1.50;;;;;;;24.11;42.90;99980.97;5012608;28;20430;-66
2022/08/09 11:31:40;;;;;;;2.10;1.13;;;;;;;24.72;41.48;99971.72;5017115;28;20076;-64
2022/08/09 11:34:33;;;;;;;2.25;1.17;;;;;;;24.89;40.70;99982.97;5028314;28;20077;-64
2022/08/09 11:37:02;;;;;;;4.68;1.40;;;;;;;24.56;41.11;99980.72;5032290;28;20061;-65
2022/08/09 11:40:04;;;;;;;5.78;1.25;;;;;;;24.49;41.50;99979.97;5032230;28;20063;-65
2022/08/09 11:42:52;;;;;;;2.55;1.20;;;;;;;24.60;41.13;99977.88;5031053;28;20059;-64
2022/08/09 11:45:20;;;;;;;4.75;2.45;;;;;;;24.75;40.72;99971.66;5012880;28;20100;-66
2022/08/09 11:47:51;;;;;;;3.03;1.48;;;;;;;24.73;40.99;99979.84;5023185;28;20049;-66
2022/08/09 11:50:20;;;;;;;2.97;1.50;;;;;;;24.44;41.54;99978.38;5029000;28;20054;-65
2022/08/09 11:53:07;;;;;;;2.22;1.17;;;;;;;24.33;41.79;99982.47;5028470;28;20045;-64
2022/08/09 11:55:58;;;;;;;3.00;1.13;;;;;;;24.29;42.03;99984.53;5013745;28;20414;-65
2022/08/09 11:58:29;;;;;;;2.35;1.30;;;;;;;24.42;40.97;99980.00;5020635;28;20100;-65
2022/08/09 12:01:07;;;;;;;7.07;1.52;;;;;;;24.37;41.38;99966.22;5022786;28;20050;-64
2022/08/09 12:04:05;;;;;;;5.80;1.25;;;;;;;24.26;41.50;99965.47;5021635;28;20493;-65
2022/08/09 12:06:34;;;;;;;5.32;1.30;;;;;;;24.27;41.28;99967.88;5029756;28;20054;-75
2022/08/09 12:09:09;;;;;;;3.15;1.40;;;;;;;24.14;41.74;99968.75;5023836;28;20049;-76
2022/08/09 12:12:08;;;;;;;2.45;1.35;;;;;;;23.84;42.16;99971.28;5028474;28;20053;-74
2022/08/09 12:14:45;;;;;;;3.35;1.48;;;;;;;23.53;42.88;99972.22;5029706;28;20048;-75
2022/08/09 12:17:32;;;;;;;3.20;1.35;;;;;;;23.47;43.36;99971.00;5021076;28;20460;-74
2022/08/09 12:20:23;;;;;;;2.70;1.40;;;;;;;23.74;42.81;99970.09;5022987;28;20076;-75
2022/08/09 12:22:58;;;;;;;2.35;1.10;;;;;;;23.90;42.25;99975.34;5022943;28;20118;-74